createdAt,value
2022-12-11T09:15:32.366Z,1.10
2022-12-11T09:19:38.262Z,1.20
2022-12-11T09:22:52.941Z,1.17
2022-12-11T10:01:50.119Z,1.45
2022-12-11T10:05:37.992Z,1.30
2022-12-11T10:20:30.935Z,2.20
2022-12-11T10:23:50.990Z,0.90
2022-12-11T10:27:20.030Z,1.17
2022-12-11T10:30:34.833Z,1.75
2022-12-11T10:34:05.952Z,1.40
2022-12-11T10:37:15.040Z,1.58
2022-12-11T10:40:36.990Z,1.00
2022-12-11T10:43:44.999Z,1.10
2022-12-11T10:47:25.077Z,1.48
2022-12-11T10:50:34.375Z,1.40
2022-12-11T10:54:04.009Z,1.45
2022-12-11T10:57:15.510Z,1.40
2022-12-11T11:00:42.014Z,1.42
2022-12-11T11:03:57.630Z,1.35
2022-12-11T11:07:26.024Z,2.12
2022-12-11T11:10:37.074Z,1.62
2022-12-11T11:13:52.126Z,1.13
2022-12-11T11:17:01.194Z,1.77
2022-12-11T11:20:22.278Z,1.77
2022-12-11T11:23:30.658Z,1.85
2022-12-11T11:27:12.266Z,1.52
2022-12-11T11:34:38.055Z,1.40
2022-12-11T11:37:56.109Z,1.60
2022-12-11T11:41:22.008Z,1.27
2022-12-11T11:44:50.966Z,1.95
2022-12-11T11:48:11.613Z,1.67
2022-12-11T11:51:33.990Z,1.73
2022-12-11T11:54:47.971Z,1.33
2022-12-11T11:58:04.059Z,1.00
2022-12-11T12:01:22.010Z,0.90
2022-12-11T12:04:41.021Z,1.50
2022-12-11T12:08:06.072Z,1.40
2022-12-11T12:11:32.184Z,1.95
2022-12-11T12:19:24.038Z,1.60
2022-12-11T12:22:52.547Z,1.80
2022-12-11T12:31:17.632Z,1.70
2022-12-11T12:35:03.663Z,1.17
2022-12-11T12:38:23.666Z,1.65
2022-12-11T12:41:57.077Z,2.00
2022-12-11T12:45:28.038Z,1.70
2022-12-11T12:48:36.948Z,2.00
2022-12-11T12:51:46.955Z,1.42
2022-12-11T12:55:06.924Z,1.50
2022-12-11T12:58:47.533Z,1.57
2022-12-11T13:02:08.544Z,1.10
2022-12-11T13:05:25.146Z,1.60
2022-12-11T13:08:54.560Z,2.05
2022-12-11T13:12:13.281Z,2.03
2022-12-11T13:15:39.555Z,1.50
2022-12-11T13:18:59.678Z,1.65
2022-12-11T13:22:23.102Z,2.42
2022-12-11T13:49:51.699Z,2.00
2022-12-11T13:53:37.056Z,1.57
2022-12-11T14:11:44.374Z,2.90
2022-12-11T14:37:41.598Z,2.60
2022-12-11T14:49:19.304Z,2.23
2022-12-11T15:00:07.166Z,2.80
2022-12-11T15:07:48.784Z,3.37
2022-12-11T15:15:35.742Z,3.35
2022-12-11T15:30:44.784Z,3.60
2022-12-11T15:38:16.985Z,3.37
2022-12-11T15:56:49.843Z,2.95
2022-12-11T16:04:53.242Z,3.90
2022-12-11T16:08:15.415Z,2.87
2022-12-11T16:11:42.847Z,2.92
2022-12-11T16:23:08.569Z,2.65
2022-12-11T16:26:43.789Z,3.28
2022-12-11T16:35:01.541Z,3.25
2022-12-11T16:38:07.464Z,3.27
2022-12-11T16:42:19.022Z,2.47
2022-12-11T16:45:44.159Z,3.58
2022-12-11T16:49:28.821Z,3.08
2022-12-11T16:52:36.730Z,2.53
2022-12-11T17:15:49.874Z,3.33
2022-12-11T17:19:42.203Z,3.10
2022-12-11T17:22:58.267Z,3.00
2022-12-11T17:26:34.306Z,3.47
2022-12-11T17:29:45.758Z,2.42
2022-12-11T17:37:00.795Z,3.20
2022-12-11T17:40:38.202Z,2.37
2022-12-11T17:56:51.220Z,2.05
2022-12-11T18:14:54.762Z,2.40
2022-12-11T18:22:16.863Z,3.12
2022-12-11T18:25:47.724Z,2.97
2022-12-11T18:33:22.416Z,3.28
2022-12-11T18:36:41.853Z,2.65
2022-12-11T18:39:48.943Z,3.28
2022-12-11T18:43:19.503Z,3.30
2022-12-11T18:46:37.495Z,2.35
2022-12-11T18:54:10.692Z,3.37
2022-12-11T19:16:27.613Z,3.00
2022-12-11T19:24:05.666Z,3.67
2022-12-11T19:31:23.267Z,2.90
2022-12-11T19:34:37.678Z,3.60
2022-12-11T19:41:56.576Z,3.22
2022-12-11T19:45:32.660Z,3.62
2022-12-11T19:56:34.606Z,4.15
2022-12-11T20:00:51.726Z,5.15
2022-12-11T20:04:11.651Z,4.07
2022-12-11T20:10:55.127Z,4.10
2022-12-11T20:14:09.698Z,4.53
2022-12-11T20:25:24.727Z,4.80
2022-12-11T20:32:36.642Z,5.32
2022-12-11T20:35:51.762Z,7.35
2022-12-11T20:39:36.590Z,5.60
2022-12-11T20:42:57.594Z,4.57
2022-12-11T20:46:21.681Z,5.03
2022-12-11T21:01:00.718Z,5.93
2022-12-11T21:04:48.574Z,5.82
2022-12-11T21:15:47.442Z,6.05
2022-12-11T21:19:51.273Z,5.78
2022-12-11T21:23:10.926Z,6.10
2022-12-11T21:26:31.393Z,5.60
2022-12-11T21:33:05.266Z,5.40
2022-12-11T21:36:18.521Z,4.72
2022-12-11T21:39:27.694Z,4.93
2022-12-11T21:43:21.204Z,5.75
2022-12-11T21:46:57.635Z,3.87
2022-12-11T21:50:16.089Z,3.90
2022-12-11T21:53:24.553Z,4.90
2022-12-11T22:12:09.926Z,3.78
2022-12-11T22:15:23.315Z,5.90
2022-12-11T22:19:30.806Z,5.97
2022-12-11T22:22:48.798Z,5.23
2022-12-11T22:29:58.849Z,5.18
2022-12-11T22:33:25.402Z,4.85
2022-12-11T22:36:40.741Z,4.53
2022-12-11T22:40:04.011Z,3.90
2022-12-11T22:43:23.798Z,5.65
2022-12-11T22:46:34.302Z,4.43
2022-12-11T22:49:56.759Z,4.63
2022-12-11T22:53:14.282Z,4.80
2022-12-11T22:56:39.509Z,4.55
2022-12-11T23:00:42.550Z,5.68
2022-12-11T23:03:53.088Z,4.43
2022-12-11T23:07:11.762Z,5.12
2022-12-11T23:10:23.668Z,5.85
2022-12-11T23:13:45.453Z,4.90
2022-12-11T23:16:59.395Z,4.07
2022-12-11T23:20:09.221Z,4.82
2022-12-11T23:23:23.755Z,4.43
2022-12-11T23:26:32.894Z,3.58
2022-12-11T23:29:47.606Z,4.77
2022-12-11T23:32:58.804Z,2.83
2022-12-11T23:36:28.524Z,3.28
2022-12-11T23:52:56.631Z,3.47
2022-12-11T23:56:18.313Z,1.87
